Time;durP1;ratioP1;P1;durP2;ratioP2;P2;SDS_P1;SDS_P2;PMS_P1;PMS_P2;Temp;Humidity;BMP_temperature;BMP_pressure;BME280_temperature;BME280_humidity;BME280_pressure;Samples;Min_cycle;Max_cycle;Signal;HPM_P1;HPM_P2
2021/04/18 00:01:22;;;;;;;12.52;7.28;;;5.30;99.90;;;;;;5115876;28;20028;-71
2021/04/18 00:03:48;;;;;;;13.40;7.18;;;5.30;99.90;;;;;;5116051;28;20403;-71
2021/04/18 00:06:13;;;;;;;16.35;8.15;;;5.30;99.90;;;;;;5115946;28;20452;-71
2021/04/18 00:08:39;;;;;;;13.20;7.82;;;5.20;99.90;;;;;;5115399;28;20016;-71
2021/04/18 00:11:04;;;;;;;14.35;7.68;;;5.20;99.90;;;;;;5115875;28;20078;-71
2021/04/18 00:13:30;;;;;;;13.48;7.88;;;5.30;99.90;;;;;;5097508;28;20024;-71
2021/04/18 00:15:55;;;;;;;16.38;8.27;;;5.20;99.90;;;;;;5115330;28;20084;-71
2021/04/18 00:18:21;;;;;;;15.35;8.15;;;5.20;99.90;;;;;;5115714;28;20038;-71
2021/04/18 00:20:47;;;;;;;15.50;8.13;;;5.10;99.90;;;;;;5115686;28;20036;-72
2021/04/18 00:23:12;;;;;;;13.05;8.00;;;5.10;99.90;;;;;;5115395;28;20019;-72
2021/04/18 00:25:38;;;;;;;15.80;8.18;;;5.10;99.90;;;;;;5115465;28;20452;-71
2021/04/18 00:28:04;;;;;;;17.08;8.13;;;5.10;99.90;;;;;;5115520;28;20153;-71
2021/04/18 00:30:29;;;;;;;16.40;8.80;;;5.00;99.90;;;;;;5114930;28;20377;-71
2021/04/18 00:32:55;;;;;;;11.70;7.47;;;5.10;99.90;;;;;;5115117;28;20027;-71
2021/04/18 00:35:22;;;;;;;11.85;7.57;;;5.20;99.90;;;;;;5115067;28;20376;-71
2021/04/18 00:37:48;;;;;;;17.23;7.70;;;5.40;99.90;;;;;;5114749;28;20034;-71
2021/04/18 00:40:18;;;;;;;13.27;7.57;;;5.30;99.90;;;;;;5097115;28;20024;-71
2021/04/18 00:42:44;;;;;;;13.60;7.78;;;5.30;99.90;;;;;;5115478;28;20103;-71
2021/04/18 00:45:11;;;;;;;15.40;7.40;;;5.30;99.90;;;;;;5114876;28;20464;-71
2021/04/18 00:47:43;;;;;;;18.17;7.70;;;5.30;99.90;;;;;;5115370;28;20051;-71
2021/04/18 00:50:11;;;;;;;16.90;8.48;;;5.20;99.90;;;;;;5114748;28;20015;-72
2021/04/18 00:52:36;;;;;;;15.27;7.72;;;5.20;99.90;;;;;;5115016;28;20023;-71
2021/04/18 00:55:05;;;;;;;17.83;8.40;;;5.10;99.90;;;;;;5115248;28;20073;-71
2021/04/18 00:57:31;;;;;;;14.70;7.28;;;5.10;99.90;;;;;;5115172;28;20426;-71
2021/04/18 00:59:59;;;;;;;14.27;7.57;;;5.00;99.90;;;;;;5096366;28;20055;-71
2021/04/18 01:02:25;;;;;;;17.20;7.45;;;5.10;99.90;;;;;;5115072;28;20487;-71
2021/04/18 01:04:50;;;;;;;18.17;7.97;;;5.10;99.90;;;;;;5114407;28;20118;-71
2021/04/18 01:07:16;;;;;;;13.45;7.55;;;5.00;99.90;;;;;;5096247;28;20024;-71
2021/04/18 01:09:41;;;;;;;16.70;7.78;;;5.00;99.90;;;;;;5114962;28;20035;-71
2021/04/18 01:12:08;;;;;;;14.35;8.43;;;5.00;99.90;;;;;;5114896;28;20024;-71
2021/04/18 01:14:33;;;;;;;14.25;7.82;;;5.00;99.90;;;;;;5095714;28;20487;-71
2021/04/18 01:16:59;;;;;;;19.77;7.82;;;5.00;99.90;;;;;;5096937;28;20106;-71
2021/04/18 01:19:24;;;;;;;15.13;7.85;;;5.00;99.90;;;;;;5114878;28;20019;-71
2021/04/18 01:21:50;;;;;;;15.93;7.75;;;4.90;99.90;;;;;;5114559;28;20028;-71
2021/04/18 01:24:16;;;;;;;15.45;8.00;;;4.80;99.90;;;;;;5114455;28;20389;-71
2021/04/18 01:26:42;;;;;;;14.80;7.35;;;4.70;99.90;;;;;;5114497;28;20020;-71
2021/04/18 01:29:08;;;;;;;17.70;8.35;;;4.60;99.90;;;;;;5114200;28;20016;-71
2021/04/18 01:31:34;;;;;;;12.77;8.35;;;4.60;99.90;;;;;;5114739;28;20349;-71
2021/04/18 01:34:00;;;;;;;23.90;9.38;;;4.60;99.90;;;;;;5114682;28;20020;-71
2021/04/18 01:36:26;;;;;;;20.05;9.15;;;4.60;99.90;;;;;;5114384;28;20027;-71
2021/04/18 01:38:53;;;;;;;14.00;8.43;;;4.60;99.90;;;;;;5114051;28;20070;-71
2021/04/18 01:41:19;;;;;;;17.85;8.63;;;4.70;99.90;;;;;;5114589;28;20107;-71
2021/04/18 01:43:44;;;;;;;13.35;7.43;;;4.70;99.90;;;;;;5114278;28;20065;-71
2021/04/18 01:46:10;;;;;;;17.05;7.82;;;4.70;99.90;;;;;;5113689;28;20047;-71
2021/04/18 01:48:37;;;;;;;13.20;7.57;;;4.60;99.90;;;;;;5114571;28;20034;-71
2021/04/18 01:51:08;;;;;;;18.20;8.27;;;4.60;99.90;;;;;;5114224;28;20020;-71
2021/04/18 01:53:34;;;;;;;17.05;8.40;;;4.60;99.90;;;;;;5114192;28;20103;-71
2021/04/18 01:56:01;;;;;;;14.55;7.95;;;4.60;99.90;;;;;;5114461;28;20031;-71
2021/04/18 01:58:27;;;;;;;13.10;8.05;;;4.60;99.90;;;;;;5096512;28;20034;-71
2021/04/18 02:00:53;;;;;;;17.00;8.57;;;4.60;99.90;;;;;;5113841;28;20024;-71
2021/04/18 02:03:18;;;;;;;15.02;8.10;;;4.70;99.90;;;;;;5114357;28;20028;-71
2021/04/18 02:05:44;;;;;;;16.58;9.07;;;4.70;99.90;;;;;;5113985;28;20028;-71
2021/04/18 02:08:10;;;;;;;12.95;8.40;;;4.70;99.90;;;;;;5113761;28;20089;-71
2021/04/18 02:10:36;;;;;;;18.63;8.98;;;4.70;99.90;;;;;;5114022;28;20120;-71
2021/04/18 02:13:01;;;;;;;21.00;9.23;;;4.70;99.90;;;;;;5114291;28;20022;-71
2021/04/18 02:15:27;;;;;;;18.30;8.98;;;4.70;99.90;;;;;;5113689;28;20036;-71
2021/04/18 02:17:53;;;;;;;17.88;9.40;;;4.70;99.90;;;;;;5095856;28;20028;-71
2021/04/18 02:20:18;;;;;;;18.98;9.10;;;4.80;99.90;;;;;;5114214;28;20016;-71
2021/04/18 02:22:45;;;;;;;15.20;9.02;;;4.80;99.90;;;;;;5114178;28;20035;-71
2021/04/18 02:25:12;;;;;;;18.10;8.93;;;4.90;99.90;;;;;;5114103;28;20024;-71
2021/04/18 02:27:37;;;;;;;18.33;8.52;;;4.90;99.90;;;;;;5097187;28;20024;-71
2021/04/18 02:30:04;;;;;;;16.98;8.00;;;5.00;99.90;;;;;;5117828;28;20019;-71
2021/04/18 02:32:30;;;;;;;14.80;8.43;;;5.00;99.90;;;;;;5118067;28;20034;-71
2021/04/18 02:34:55;;;;;;;15.90;8.35;;;5.00;99.90;;;;;;5099573;28;20368;-71
2021/04/18 02:37:21;;;;;;;16.58;8.68;;;5.10;99.90;;;;;;5117942;28;20028;-71
2021/04/18 02:39:47;;;;;;;18.95;8.43;;;5.10;99.90;;;;;;5117349;28;20069;-71
2021/04/18 02:42:12;;;;;;;17.67;8.55;;;5.10;99.90;;;;;;5117303;28;20031;-71
2021/04/18 02:44:38;;;;;;;15.48;9.38;;;5.10;99.90;;;;;;5117188;28;20088;-71
2021/04/18 02:47:04;;;;;;;18.42;9.90;;;5.10;99.90;;;;;;5117255;28;20015;-71
2021/04/18 02:49:30;;;;;;;17.85;9.10;;;5.10;99.90;;;;;;5117747;28;20047;-71
2021/04/18 02:51:56;;;;;;;22.85;10.68;;;5.10;99.90;;;;;;5117730;28;20100;-71
2021/04/18 02:54:21;;;;;;;26.80;12.02;;;5.10;99.90;;;;;;5117362;28;20364;-71
2021/04/18 02:56:47;;;;;;;16.33;10.75;;;5.10;99.90;;;;;;5117344;28;20373;-71
2021/04/18 02:59:13;;;;;;;25.10;10.80;;;5.10;99.90;;;;;;5099090;28;20032;-71
2021/04/18 03:01:38;;;;;;;18.90;10.95;;;5.10;99.90;;;;;;5116943;28;20023;-71
2021/04/18 03:04:05;;;;;;;16.23;10.13;;;5.20;99.90;;;;;;5117448;28;20085;-71
2021/04/18 03:06:31;;;;;;;18.15;10.02;;;5.30;99.90;;;;;;5117099;28;20027;-71
2021/04/18 03:08:56;;;;;;;19.55;10.95;;;5.40;99.90;;;;;;5117075;28;20073;-71
2021/04/18 03:11:23;;;;;;;20.83;10.80;;;5.40;99.90;;;;;;5117029;28;20024;-71
2021/04/18 03:13:49;;;;;;;17.58;11.00;;;5.40;99.90;;;;;;5116718;28;20015;-71
2021/04/18 03:16:15;;;;;;;19.48;11.25;;;5.40;99.90;;;;;;5117356;28;20049;-71
2021/04/18 03:18:40;;;;;;;24.58;12.70;;;5.50;99.90;;;;;;5116992;28;20030;-71
2021/04/18 03:21:06;;;;;;;21.05;12.73;;;5.50;99.90;;;;;;5116645;28;20032;-71
2021/04/18 03:23:32;;;;;;;20.13;12.32;;;5.60;99.90;;;;;;5116732;28;20051;-71
2021/04/18 03:25:58;;;;;;;20.95;11.63;;;5.50;99.90;;;;;;5116685;28;20034;-72
2021/04/18 03:28:23;;;;;;;18.52;10.73;;;5.40;99.90;;;;;;5116919;28;20019;-71
2021/04/18 03:30:50;;;;;;;22.98;11.48;;;5.40;99.90;;;;;;5116818;28;20035;-71
2021/04/18 03:33:16;;;;;;;17.77;11.20;;;5.40;99.90;;;;;;5116313;28;20218;-72
2021/04/18 03:35:42;;;;;;;19.73;11.43;;;5.40;99.90;;;;;;5098097;28;20151;-71
2021/04/18 03:38:09;;;;;;;19.75;10.98;;;5.30;99.90;;;;;;5116884;28;20405;-71
2021/04/18 03:40:35;;;;;;;18.42;11.20;;;5.20;99.90;;;;;;5127790;28;20024;-72
2021/04/18 03:43:01;;;;;;;20.00;10.63;;;5.30;99.90;;;;;;5129905;28;20031;-72
2021/04/18 03:45:26;;;;;;;22.00;11.15;;;5.20;99.90;;;;;;5129234;28;20400;-71
2021/04/18 03:47:52;;;;;;;21.55;11.73;;;5.20;99.90;;;;;;5128695;28;20023;-72
2021/04/18 03:50:17;;;;;;;20.42;11.23;;;5.00;99.90;;;;;;5118960;28;20023;-71
2021/04/18 03:52:44;;;;;;;17.48;10.68;;;5.00;99.90;;;;;;5098455;28;20051;-71
2021/04/18 03:55:10;;;;;;;24.67;11.55;;;4.90;99.90;;;;;;5116320;28;20027;-71
2021/04/18 03:57:37;;;;;;;20.38;10.77;;;5.00;99.90;;;;;;5117052;28;20143;-71
2021/04/18 04:00:22;;;;;;;17.95;11.70;;;4.90;99.90;;;;;;5082049;28;20024;-71
2021/04/18 04:02:54;;;;;;;16.35;10.95;;;5.00;99.90;;;;;;5101820;28;20020;-71
2021/04/18 04:05:19;;;;;;;18.45;11.63;;;5.00;99.90;;;;;;5081947;28;20020;-71
2021/04/18 04:07:49;;;;;;;18.05;11.25;;;5.00;99.90;;;;;;5099050;28;20026;-72
2021/04/18 04:10:29;;;;;;;21.85;10.60;;;5.00;99.90;;;;;;5081406;28;20031;-71
2021/04/18 04:13:15;;;;;;;17.77;11.32;;;5.00;99.90;;;;;;5084732;28;20407;-71
2021/04/18 04:15:50;;;;;;;17.58;10.85;;;4.90;99.90;;;;;;5084192;28;20028;-73
2021/04/18 04:18:19;;;;;;;17.23;11.15;;;4.90;99.90;;;;;;5099327;28;20360;-72
2021/04/18 04:20:45;;;;;;;18.17;10.57;;;4.90;99.90;;;;;;5098850;28;20454;-71
2021/04/18 04:23:11;;;;;;;17.23;11.35;;;4.80;99.90;;;;;;5098355;28;20058;-71
2021/04/18 04:25:40;;;;;;;21.55;12.48;;;4.70;99.90;;;;;;5081646;28;20059;-71
2021/04/18 04:28:07;;;;;;;22.58;12.70;;;4.70;99.90;;;;;;5098207;28;20015;-72
2021/04/18 04:30:34;;;;;;;20.60;12.48;;;4.70;99.90;;;;;;5081551;28;20039;-73
2021/04/18 04:33:14;;;;;;;22.70;13.05;;;4.70;99.90;;;;;;5097944;28;20019;-72
2021/04/18 04:36:07;;;;;;;20.42;12.80;;;4.70;99.90;;;;;;5083334;28;20425;-71
2021/04/18 04:38:34;;;;;;;20.15;12.20;;;4.70;99.90;;;;;;5081110;28;20072;-70
2021/04/18 04:41:05;;;;;;;19.98;11.52;;;4.80;99.90;;;;;;5097962;28;20104;-72
2021/04/18 04:43:34;;;;;;;17.38;11.45;;;4.80;99.90;;;;;;5097405;28;20031;-71
2021/04/18 04:46:03;;;;;;;22.15;11.98;;;4.80;99.90;;;;;;5059476;28;20150;-71
2021/04/18 04:48:28;;;;;;;19.33;11.45;;;4.80;99.90;;;;;;5041429;28;20028;-71
2021/04/18 04:50:54;;;;;;;19.77;11.20;;;4.80;99.90;;;;;;5073504;28;20381;-71
2021/04/18 04:53:19;;;;;;;16.98;10.93;;;4.80;99.90;;;;;;5074663;28;20469;-71
2021/04/18 04:55:47;;;;;;;18.58;10.45;;;4.70;99.90;;;;;;5074377;28;20076;-71
2021/04/18 04:58:13;;;;;;;24.65;10.27;;;4.80;99.90;;;;;;5073502;28;20024;-71
2021/04/18 05:00:38;;;;;;;23.65;11.25;;;4.90;99.90;;;;;;5074566;28;20029;-71
2021/04/18 05:03:04;;;;;;;19.05;10.77;;;4.90;99.90;;;;;;5074568;28;20028;-71
2021/04/18 05:05:31;;;;;;;16.83;10.43;;;5.00;99.90;;;;;;5074418;28;20052;-71
2021/04/18 05:07:56;;;;;;;21.35;11.43;;;5.10;99.90;;;;;;5073095;28;20013;-71
2021/04/18 05:10:22;;;;;;;20.10;11.90;;;5.10;99.90;;;;;;5074462;28;20027;-71
2021/04/18 05:12:47;;;;;;;22.05;11.20;;;5.10;99.90;;;;;;5072702;28;20021;-71
2021/04/18 05:15:13;;;;;;;20.25;11.40;;;5.20;99.90;;;;;;5074357;28;20029;-71
2021/04/18 05:17:39;;;;;;;24.05;11.38;;;5.30;99.90;;;;;;5072627;28;20028;-71
2021/04/18 05:20:05;;;;;;;23.65;12.07;;;5.40;99.90;;;;;;5073789;28;20149;-71
2021/04/18 05:22:31;;;;;;;20.08;12.07;;;5.40;99.90;;;;;;5072837;28;20099;-71
2021/04/18 05:24:56;;;;;;;19.48;10.68;;;5.40;99.90;;;;;;5073907;28;20107;-71
2021/04/18 05:27:23;;;;;;;19.15;11.00;;;5.50;99.90;;;;;;5073652;28;20025;-71
2021/04/18 05:29:48;;;;;;;18.20;10.73;;;5.50;99.90;;;;;;5074171;28;20028;-71
2021/04/18 05:32:14;;;;;;;21.90;11.02;;;5.50;99.90;;;;;;5073871;28;20025;-71
2021/04/18 05:34:39;;;;;;;22.60;11.57;;;5.60;99.90;;;;;;5074129;28;20020;-71
2021/04/18 05:37:05;;;;;;;19.50;11.65;;;5.60;99.90;;;;;;5073110;28;20101;-71
2021/04/18 05:39:31;;;;;;;18.80;10.63;;;5.60;99.90;;;;;;5073734;28;20082;-71
2021/04/18 05:41:57;;;;;;;18.30;10.80;;;5.60;99.90;;;;;;5074050;28;20028;-71
2021/04/18 05:44:22;;;;;;;21.45;11.40;;;5.70;99.90;;;;;;5081713;28;20070;-71
2021/04/18 05:46:48;;;;;;;19.40;11.13;;;5.70;99.90;;;;;;5114468;28;20085;-71
2021/04/18 05:49:14;;;;;;;17.80;11.63;;;5.70;99.90;;;;;;5114509;28;20027;-71
2021/04/18 05:51:39;;;;;;;29.00;13.05;;;5.80;99.90;;;;;;5113906;28;20019;-71
2021/04/18 05:54:06;;;;;;;21.13;12.70;;;5.90;99.90;;;;;;5114499;28;20076;-71
2021/04/18 05:56:32;;;;;;;21.65;11.52;;;6.00;99.90;;;;;;5096190;28;20028;-71
2021/04/18 05:58:58;;;;;;;22.58;12.93;;;6.10;99.90;;;;;;5113904;28;20081;-71
2021/04/18 06:01:24;;;;;;;22.77;13.23;;;6.10;99.90;;;;;;5115720;28;20483;-71
2021/04/18 06:03:51;;;;;;;21.25;13.02;;;6.20;99.90;;;;;;5118695;28;20024;-71
2021/04/18 06:06:16;;;;;;;23.33;12.70;;;6.20;99.90;;;;;;5117993;28;20146;-71
2021/04/18 06:08:42;;;;;;;22.95;12.27;;;6.30;99.90;;;;;;5118581;28;20512;-71
2021/04/18 06:11:08;;;;;;;24.13;12.07;;;6.30;99.90;;;;;;5118266;28;20019;-71
2021/04/18 06:13:34;;;;;;;22.40;11.25;;;6.40;99.90;;;;;;5118469;28;20026;-71
2021/04/18 06:16:00;;;;;;;22.60;11.30;;;6.20;99.90;;;;;;5100160;28;20019;-71
2021/04/18 06:18:26;;;;;;;18.05;11.23;;;6.30;99.90;;;;;;5118371;28;20028;-71
2021/04/18 06:20:51;;;;;;;19.02;10.75;;;6.30;99.90;;;;;;5118022;28;20081;-71
2021/04/18 06:23:17;;;;;;;22.83;10.82;;;6.20;99.90;;;;;;5118253;28;20379;-71
2021/04/18 06:25:43;;;;;;;25.73;11.48;;;6.30;99.90;;;;;;5117882;28;20027;-71
2021/04/18 06:28:08;;;;;;;28.75;11.73;;;6.30;99.90;;;;;;5118147;28;20405;-71
2021/04/18 06:30:34;;;;;;;22.33;11.10;;;6.50;99.90;;;;;;5118200;28;20048;-71
2021/04/18 06:32:59;;;;;;;22.20;12.15;;;6.50;99.90;;;;;;5117798;28;20026;-71
2021/04/18 06:35:25;;;;;;;22.65;11.85;;;6.50;99.90;;;;;;5118016;28;20020;-71
2021/04/18 06:37:50;;;;;;;21.35;12.52;;;6.50;99.90;;;;;;5117419;28;20038;-71
2021/04/18 06:40:16;;;;;;;19.88;12.38;;;6.50;99.90;;;;;;5117963;28;20028;-71
2021/04/18 06:42:42;;;;;;;22.15;12.23;;;6.60;99.90;;;;;;5117647;28;20054;-71
2021/04/18 06:45:10;;;;;;;21.83;12.73;;;6.60;99.90;;;;;;5098848;28;20052;-71
2021/04/18 06:47:38;;;;;;;20.40;11.95;;;6.70;99.90;;;;;;5117751;28;20064;-71
2021/04/18 06:50:05;;;;;;;20.83;11.90;;;6.90;99.90;;;;;;5117664;28;20015;-72
2021/04/18 06:52:33;;;;;;;26.02;12.77;;;7.00;99.90;;;;;;5117290;28;20015;-71
2021/04/18 06:54:59;;;;;;;22.40;12.98;;;7.00;99.90;;;;;;5116930;28;20031;-71
2021/04/18 06:57:24;;;;;;;24.45;12.93;;;6.90;99.90;;;;;;5117317;28;20023;-71
2021/04/18 06:59:50;;;;;;;20.58;13.15;;;6.90;99.90;;;;;;5098818;28;20028;-71
2021/04/18 07:02:25;;;;;;;22.23;12.75;;;7.00;99.90;;;;;;5117438;28;20371;-72
2021/04/18 07:04:56;;;;;;;18.92;12.35;;;7.00;99.90;;;;;;5117254;28;20043;-71
2021/04/18 07:07:27;;;;;;;23.10;13.13;;;6.90;99.90;;;;;;5117065;28;20069;-71
2021/04/18 07:09:54;;;;;;;22.88;13.40;;;7.00;99.90;;;;;;5117254;28;20103;-71
2021/04/18 07:12:29;;;;;;;19.60;11.75;;;7.10;99.90;;;;;;5116074;28;20020;-73
2021/04/18 07:14:55;;;;;;;24.60;12.60;;;7.00;99.90;;;;;;5117151;28;20448;-71
2021/04/18 07:17:21;;;;;;;25.73;13.25;;;6.90;99.90;;;;;;5117079;28;20028;-71
2021/04/18 07:19:49;;;;;;;24.38;14.35;;;7.00;99.90;;;;;;5098634;28;20092;-71
2021/04/18 07:22:18;;;;;;;24.52;14.15;;;7.20;99.90;;;;;;5117056;28;20376;-71
2021/04/18 07:24:50;;;;;;;23.90;12.75;;;7.30;99.90;;;;;;5098357;28;20026;-71
2021/04/18 07:27:16;;;;;;;19.50;12.18;;;7.40;99.90;;;;;;5099121;28;20023;-71
2021/04/18 07:29:42;;;;;;;21.65;13.27;;;7.60;99.90;;;;;;5117032;28;20016;-71
2021/04/18 07:32:25;;;;;;;26.17;14.10;;;7.80;99.90;;;;;;5098098;28;20461;-71
2021/04/18 07:34:51;;;;;;;26.67;13.88;;;7.80;99.90;;;;;;5116386;28;20031;-72
2021/04/18 07:37:20;;;;;;;22.40;13.20;;;8.00;99.90;;;;;;5098745;28;20035;-71
2021/04/18 07:39:53;;;;;;;22.30;13.10;;;8.10;99.90;;;;;;5116528;28;20027;-71
2021/04/18 07:45:14;;;;;;;24.00;12.43;;;8.50;99.90;;;;;;5112156;27;20373;-72
2021/04/18 07:47:43;;;;;;;20.90;11.93;;;8.80;99.90;;;;;;5111710;28;20055;-71
2021/04/18 07:50:12;;;;;;;20.35;12.18;;;9.30;99.90;;;;;;5111965;28;20027;-73
2021/04/18 07:52:42;;;;;;;22.08;12.68;;;9.40;99.90;;;;;;5111605;28;20464;-71
2021/04/18 07:55:09;;;;;;;20.48;12.02;;;9.40;99.90;;;;;;5111796;28;20028;-71
2021/04/18 07:57:34;;;;;;;20.17;12.05;;;9.00;99.90;;;;;;5109880;28;20439;-72
2021/04/18 08:00:00;;;;;;;23.88;12.75;;;8.70;99.90;;;;;;5111462;28;20024;-73
2021/04/18 08:02:27;;;;;;;22.80;12.98;;;8.50;99.90;;;;;;5111099;28;20019;-73
2021/04/18 08:04:55;;;;;;;22.75;13.23;;;8.60;99.90;;;;;;5111316;28;20035;-73
2021/04/18 08:07:22;;;;;;;22.02;13.43;;;8.70;99.90;;;;;;5110176;28;20020;-73
2021/04/18 08:09:47;;;;;;;24.30;13.40;;;9.00;99.90;;;;;;5111225;28;20105;-73
2021/04/18 08:12:17;;;;;;;23.95;13.30;;;9.30;99.90;;;;;;5109931;28;20451;-73
2021/04/18 08:14:46;;;;;;;22.08;12.98;;;9.60;99.90;;;;;;5111342;28;20529;-71
2021/04/18 08:17:16;;;;;;;22.92;12.55;;;9.80;99.90;;;;;;5111302;28;20019;-73
2021/04/18 08:19:59;;;;;;;20.30;12.43;;;10.10;99.90;;;;;;5111026;28;20032;-73
2021/04/18 08:22:25;;;;;;;19.00;11.95;;;10.00;99.90;;;;;;5109478;28;20028;-73
2021/04/18 08:25:11;;;;;;;20.55;12.95;;;10.00;99.90;;;;;;5111129;28;20470;-73
2021/04/18 08:28:07;;;;;;;21.52;13.52;;;10.00;99.90;;;;;;5111097;28;20095;-73
2021/04/18 08:31:08;;;;;;;26.90;13.27;;;9.90;99.90;;;;;;5110461;28;20012;-73
2021/04/18 08:33:45;;;;;;;25.23;13.60;;;9.90;99.90;;;;;;5109215;28;20027;-73
2021/04/18 08:41:48;;;;;;;19.35;12.82;;;10.10;99.90;;;;;;5112219;27;20420;-73
2021/04/18 08:47:02;;;;;;;21.27;12.35;;;10.30;99.90;;;;;;5091836;27;20149;-73
2021/04/18 08:49:31;;;;;;;17.30;11.07;;;12.00;99.90;;;;;;5089726;28;20029;-73
2021/04/18 08:51:58;;;;;;;23.67;11.38;;;12.90;99.90;;;;;;5091493;28;20021;-71
2021/04/18 08:54:26;;;;;;;19.25;11.02;;;14.30;99.90;;;;;;5091400;28;20078;-71
2021/04/18 08:56:55;;;;;;;15.82;11.05;;;15.10;99.90;;;;;;5091370;28;20020;-73
2021/04/18 08:59:21;;;;;;;15.68;9.63;;;15.30;99.90;;;;;;5091355;28;20027;-73
2021/04/18 09:02:09;;;;;;;18.17;10.77;;;15.90;99.90;;;;;;5090781;28;20489;-71
2021/04/18 09:04:45;;;;;;;16.58;9.93;;;16.70;99.90;;;;;;5089338;28;20464;-71
2021/04/18 09:07:15;;;;;;;16.25;10.27;;;17.20;99.90;;;;;;5090952;28;20057;-71
2021/04/18 09:09:41;;;;;;;13.50;10.38;;;16.90;99.90;;;;;;5090189;28;20028;-72
2021/04/18 09:12:08;;;;;;;13.23;9.45;;;16.60;99.90;;;;;;5090859;28;20028;-72
2021/04/18 09:14:41;;;;;;;20.70;10.68;;;15.70;99.90;;;;;;5091073;28;20020;-72
2021/04/18 09:17:17;;;;;;;18.38;10.13;;;16.50;99.90;;;;;;5090705;28;20389;-71
2021/04/18 09:19:46;;;;;;;17.45;10.00;;;16.80;99.90;;;;;;5089370;28;20020;-72
2021/04/18 09:22:15;;;;;;;16.05;10.10;;;16.10;99.90;;;;;;5090905;28;20020;-71
2021/04/18 09:25:09;;;;;;;22.35;10.65;;;15.70;99.90;;;;;;5090845;28;20016;-72
2021/04/18 09:27:38;;;;;;;19.00;10.65;;;16.00;99.90;;;;;;5090560;28;20020;-72
2021/04/18 09:30:24;;;;;;;20.73;10.55;;;16.60;99.90;;;;;;5090236;28;20020;-72
2021/04/18 09:32:53;;;;;;;19.75;9.48;;;16.70;99.90;;;;;;5090197;28;20043;-72
2021/04/18 09:35:21;;;;;;;17.63;10.05;;;16.10;99.90;;;;;;5090413;28;20111;-74
2021/04/18 09:38:00;;;;;;;13.57;10.05;;;15.90;99.90;;;;;;5089190;28;20130;-72
2021/04/18 09:40:28;;;;;;;16.65;10.75;;;15.70;99.90;;;;;;5090597;28;20469;-72
2021/04/18 09:42:54;;;;;;;16.42;10.15;;;15.10;99.90;;;;;;5090008;28;20073;-74
2021/04/18 09:48:17;;;;;;;16.50;9.88;;;16.30;99.90;;;;;;5112189;27;20408;-73
2021/04/18 09:50:43;;;;;;;14.55;9.70;;;16.60;99.90;;;;;;5111369;28;20028;-72
2021/04/18 09:53:19;;;;;;;15.75;9.48;;;16.40;99.90;;;;;;5110408;28;20455;-73
2021/04/18 09:55:56;;;;;;;13.77;9.55;;;16.20;99.90;;;;;;5111506;28;20027;-73
2021/04/18 09:58:31;;;;;;;15.15;9.80;;;16.20;99.90;;;;;;5110805;28;20387;-73
2021/04/18 10:00:57;;;;;;;15.90;10.15;;;14.90;99.90;;;;;;5111704;28;20442;-74
2021/04/18 10:03:34;;;;;;;17.98;9.80;;;13.90;99.90;;;;;;5111434;28;20020;-74
2021/04/18 10:06:00;;;;;;;13.80;10.43;;;14.70;99.90;;;;;;5111554;28;20103;-73
2021/04/18 10:08:29;;;;;;;19.55;10.75;;;15.70;99.90;;;;;;5111507;28;20069;-72
2021/04/18 10:13:54;;;;;;;19.25;10.55;;;14.90;99.90;;;;;;5091606;27;20150;-73
2021/04/18 10:16:37;;;;;;;16.42;10.60;;;14.00;99.90;;;;;;5091289;28;20495;-73
2021/04/18 10:19:07;;;;;;;16.10;10.68;;;13.90;99.90;;;;;;5091548;28;20021;-74
2021/04/18 10:21:33;;;;;;;17.52;10.48;;;14.80;99.90;;;;;;5091146;28;20054;-72
2021/04/18 10:23:59;;;;;;;22.25;11.15;;;15.00;99.90;;;;;;5091182;28;20048;-74
2021/04/18 10:26:25;;;;;;;18.77;10.93;;;15.30;99.90;;;;;;5091328;28;20024;-74
2021/04/18 10:28:53;;;;;;;16.55;10.57;;;15.80;99.90;;;;;;5091022;28;20418;-74
2021/04/18 10:31:22;;;;;;;25.42;11.32;;;15.20;99.90;;;;;;5090706;28;20427;-73
2021/04/18 10:33:47;;;;;;;15.65;10.70;;;14.50;99.90;;;;;;5090937;28;20024;-75
2021/04/18 10:36:14;;;;;;;16.90;10.68;;;14.40;99.90;;;;;;5091367;28;20081;-74
2021/04/18 10:38:40;;;;;;;19.20;11.43;;;14.30;99.90;;;;;;5090809;28;20012;-73
2021/04/18 10:41:07;;;;;;;18.48;10.70;;;14.10;99.90;;;;;;5090068;28;20024;-74
2021/04/18 10:43:34;;;;;;;18.45;10.70;;;13.90;99.90;;;;;;5090771;28;20021;-74
2021/04/18 10:46:01;;;;;;;19.83;11.50;;;13.50;99.90;;;;;;5090960;28;20107;-74
2021/04/18 10:48:27;;;;;;;22.67;12.30;;;13.20;99.90;;;;;;5090375;28;20556;-74
2021/04/18 10:50:52;;;;;;;20.08;11.98;;;13.20;99.90;;;;;;5090934;28;20111;-74
2021/04/18 10:53:19;;;;;;;22.17;12.15;;;13.70;99.90;;;;;;5090706;28;20037;-74
2021/04/18 10:55:46;;;;;;;21.42;10.90;;;13.70;99.90;;;;;;5090512;28;20025;-74
2021/04/18 10:58:14;;;;;;;16.63;10.85;;;14.20;99.90;;;;;;5090752;28;20017;-74
2021/04/18 11:00:40;;;;;;;19.20;11.18;;;14.60;99.90;;;;;;5090327;28;20020;-74
2021/04/18 11:03:06;;;;;;;17.80;10.68;;;14.50;99.90;;;;;;5090087;28;20035;-74
2021/04/18 11:05:32;;;;;;;21.25;10.77;;;14.90;99.90;;;;;;5090660;28;20466;-75
2021/04/18 11:07:57;;;;;;;18.40;10.90;;;15.30;99.90;;;;;;5090559;28;20028;-74
2021/04/18 11:10:23;;;;;;;20.80;10.85;;;15.30;99.90;;;;;;5090675;28;20037;-74
2021/04/18 11:12:48;;;;;;;21.52;10.85;;;14.70;99.90;;;;;;5101859;28;20396;-74
2021/04/18 11:15:14;;;;;;;17.20;10.15;;;14.40;99.90;;;;;;5110453;28;20020;-75
2021/04/18 11:17:40;;;;;;;19.08;10.98;;;14.60;99.90;;;;;;5092772;28;20020;-74
2021/04/18 11:20:08;;;;;;;17.77;9.93;;;14.70;99.90;;;;;;5110130;28;20050;-74
2021/04/18 11:22:37;;;;;;;17.60;11.00;;;14.60;99.90;;;;;;5110366;28;20384;-74
2021/04/18 11:25:05;;;;;;;19.83;10.80;;;14.60;99.90;;;;;;5098041;28;20458;-74
2021/04/18 11:27:30;;;;;;;18.70;11.00;;;14.90;99.90;;;;;;5096801;28;20212;-75
2021/04/18 11:29:56;;;;;;;17.67;10.50;;;15.70;99.90;;;;;;5096890;28;20106;-74
2021/04/18 11:32:21;;;;;;;19.40;10.52;;;15.90;99.90;;;;;;5096507;28;20042;-75
2021/04/18 11:34:47;;;;;;;18.55;10.95;;;16.30;99.90;;;;;;5096765;28;20020;-74
2021/04/18 11:37:12;;;;;;;18.33;10.73;;;16.60;99.90;;;;;;5078597;28;20103;-75
2021/04/18 11:39:38;;;;;;;18.08;10.32;;;16.50;99.90;;;;;;5078356;28;20024;-74
2021/04/18 11:42:04;;;;;;;19.13;10.85;;;16.10;99.90;;;;;;5096117;28;20038;-74
2021/04/18 11:44:30;;;;;;;17.23;9.88;;;16.50;99.90;;;;;;5078442;28;20030;-74
2021/04/18 11:46:55;;;;;;;19.50;11.05;;;16.30;99.90;;;;;;5096572;28;20028;-75
2021/04/18 11:49:22;;;;;;;21.38;11.43;;;16.20;99.90;;;;;;5095956;28;20132;-74
2021/04/18 11:51:48;;;;;;;17.63;11.13;;;16.00;99.90;;;;;;5095800;28;20111;-75
2021/04/18 11:54:14;;;;;;;19.15;11.13;;;15.70;99.90;;;;;;5095904;28;20134;-75
2021/04/18 11:56:39;;;;;;;17.25;10.00;;;15.60;99.90;;;;;;5095829;28;20052;-75
2021/04/18 11:59:05;;;;;;;17.23;10.57;;;15.60;99.90;;;;;;5096367;28;20507;-75
2021/04/18 12:01:32;;;;;;;19.45;10.80;;;15.80;99.90;;;;;;5096012;28;20023;-75
2021/04/18 12:03:58;;;;;;;17.92;11.20;;;15.90;99.90;;;;;;5096245;28;20111;-75
2021/04/18 12:06:23;;;;;;;20.45;11.00;;;16.00;99.90;;;;;;5095932;28;20052;-75
2021/04/18 12:08:49;;;;;;;16.80;11.52;;;15.90;99.90;;;;;;5095929;28;20050;-75
2021/04/18 12:11:14;;;;;;;17.35;11.35;;;15.50;99.90;;;;;;5078208;28;20024;-75
2021/04/18 12:13:40;;;;;;;14.82;10.57;;;15.90;99.90;;;;;;5095322;28;20052;-75
2021/04/18 12:16:06;;;;;;;21.08;10.48;;;15.80;99.90;;;;;;5096047;28;20099;-75
2021/04/18 12:18:31;;;;;;;15.38;9.98;;;15.90;99.90;;;;;;5095991;28;20419;-74
2021/04/18 12:20:57;;;;;;;19.75;10.70;;;15.90;99.90;;;;;;5095616;28;20422;-75
2021/04/18 12:23:23;;;;;;;17.70;11.20;;;16.40;99.90;;;;;;5095895;28;20027;-76
2021/04/18 12:25:48;;;;;;;16.73;11.23;;;16.20;99.90;;;;;;5095511;28;20032;-75
2021/04/18 12:28:14;;;;;;;19.15;11.05;;;16.40;99.90;;;;;;5095758;28;20435;-76
2021/04/18 12:30:40;;;;;;;13.95;9.43;;;16.30;99.90;;;;;;5095544;28;20027;-75
2021/04/18 12:33:06;;;;;;;14.00;10.63;;;15.60;99.90;;;;;;5077639;28;20373;-75
2021/04/18 12:35:32;;;;;;;15.70;10.23;;;15.50;99.90;;;;;;5094417;28;20021;-75
2021/04/18 12:37:58;;;;;;;17.48;10.05;;;16.00;99.90;;;;;;5077640;28;20020;-75
2021/04/18 12:40:24;;;;;;;15.88;9.80;;;16.00;99.90;;;;;;5095304;28;20032;-76
2021/04/18 12:42:50;;;;;;;17.38;11.20;;;16.50;99.90;;;;;;5095562;28;20036;-75
2021/04/18 12:45:15;;;;;;;16.92;9.93;;;16.70;99.90;;;;;;5095536;28;20028;-75
2021/04/18 12:47:41;;;;;;;17.05;9.65;;;16.90;99.90;;;;;;5077296;28;20039;-75
2021/04/18 12:50:08;;;;;;;16.02;10.15;;;16.80;99.90;;;;;;5095546;28;20028;-76
2021/04/18 12:52:33;;;;;;;16.98;10.60;;;16.70;99.90;;;;;;5096351;28;20533;-75
2021/04/18 12:54:59;;;;;;;14.52;10.20;;;16.50;99.90;;;;;;5097864;28;20052;-75